Time;durP1;ratioP1;P1;durP2;ratioP2;P2;SDS_P1;SDS_P2;PMS_P1;PMS_P2;Temp;Humidity;BMP_temperature;BMP_pressure;BME280_temperature;BME280_humidity;BME280_pressure;Samples;Min_cycle;Max_cycle;Signal;HPM_P1;HPM_P2
2022/07/16 00:01:23;;;;;;;4.93;1.10;;;15.20;51.80;;;;;;4963603;28;20030;-71
2022/07/16 00:03:56;;;;;;;1.02;0.90;;;15.10;51.90;;;;;;4953435;28;20913;-73
2022/07/16 00:06:22;;;;;;;1.85;1.00;;;15.00;52.10;;;;;;4957730;28;20047;-69
2022/07/16 00:08:47;;;;;;;2.63;1.00;;;15.00;51.90;;;;;;4962640;28;20039;-73
2022/07/16 00:11:13;;;;;;;3.13;1.27;;;15.00;52.20;;;;;;4957759;28;20038;-71
2022/07/16 00:13:39;;;;;;;4.03;1.23;;;14.90;52.30;;;;;;4956053;28;20039;-69
2022/07/16 00:16:08;;;;;;;2.08;1.30;;;14.90;52.50;;;;;;4943266;28;20131;-72
2022/07/16 00:21:17;;;;;;;2.22;1.40;;;14.80;52.60;;;;;;4964056;28;20097;-71
2022/07/16 00:23:43;;;;;;;2.95;1.27;;;14.80;52.70;;;;;;4970593;28;20047;-72
2022/07/16 00:26:08;;;;;;;2.75;1.20;;;14.70;52.80;;;;;;4941931;28;20578;-71
2022/07/16 00:28:34;;;;;;;3.15;1.17;;;14.70;53.00;;;;;;4927486;28;20035;-71
2022/07/16 00:30:59;;;;;;;1.45;0.75;;;14.60;53.00;;;;;;4955504;28;20115;-72
2022/07/16 00:33:25;;;;;;;2.80;0.80;;;14.60;53.50;;;;;;4954696;28;20109;-71
2022/07/16 00:35:50;;;;;;;2.13;1.00;;;14.50;53.30;;;;;;4944891;28;20129;-71
2022/07/16 00:38:16;;;;;;;1.95;0.93;;;14.50;53.40;;;;;;4953196;28;20039;-72
2022/07/16 00:40:41;;;;;;;1.98;1.02;;;14.40;53.40;;;;;;4955342;28;20043;-72
2022/07/16 00:43:11;;;;;;;2.10;1.10;;;14.40;53.60;;;;;;4949244;28;20034;-71
2022/07/16 00:45:37;;;;;;;2.00;1.13;;;14.40;53.90;;;;;;4939963;28;20067;-72
2022/07/16 00:48:03;;;;;;;1.88;1.05;;;14.30;53.70;;;;;;4963882;28;20220;-71
2022/07/16 00:50:28;;;;;;;2.17;0.80;;;14.30;53.90;;;;;;4938039;28;20117;-71
2022/07/16 00:52:54;;;;;;;2.80;1.30;;;14.30;54.10;;;;;;4941812;28;20093;-72
2022/07/16 00:55:19;;;;;;;2.58;0.93;;;14.20;54.10;;;;;;4926105;28;20045;-72
2022/07/16 00:57:45;;;;;;;3.92;1.00;;;14.20;54.20;;;;;;4929213;28;20050;-72
2022/07/16 01:00:11;;;;;;;2.53;0.85;;;14.10;54.30;;;;;;4928587;28;21503;-71
2022/07/16 01:02:36;;;;;;;2.13;1.10;;;14.10;54.40;;;;;;4937633;28;20023;-72
2022/07/16 01:05:02;;;;;;;1.65;1.05;;;14.10;54.40;;;;;;4954941;28;20105;-71
2022/07/16 01:07:28;;;;;;;2.35;0.90;;;14.00;54.60;;;;;;4956458;28;20103;-71
2022/07/16 01:09:53;;;;;;;2.22;1.30;;;14.00;54.60;;;;;;4991977;28;20029;-71
2022/07/16 01:12:19;;;;;;;1.17;1.00;;;14.00;54.80;;;;;;4959449;28;20042;-71
2022/07/16 01:14:44;;;;;;;1.73;1.30;;;13.90;54.90;;;;;;4968436;28;20089;-72
2022/07/16 01:17:10;;;;;;;3.05;1.10;;;13.90;55.00;;;;;;4957977;28;20613;-72
2022/07/16 01:19:36;;;;;;;4.82;1.40;;;13.90;55.20;;;;;;4940810;28;20031;-72
2022/07/16 01:22:01;;;;;;;1.67;1.00;;;13.80;55.30;;;;;;4941468;28;20031;-70
2022/07/16 01:24:27;;;;;;;3.80;1.20;;;13.80;55.30;;;;;;4938514;28;20051;-71
2022/07/16 01:26:52;;;;;;;1.08;1.00;;;13.80;55.40;;;;;;4924721;28;20027;-71
2022/07/16 01:29:18;;;;;;;1.95;1.02;;;13.70;55.50;;;;;;4938687;28;20620;-72
2022/07/16 01:31:43;;;;;;;1.88;0.95;;;13.70;55.50;;;;;;4948034;28;20061;-72
2022/07/16 01:34:27;;;;;;;2.25;1.15;;;13.70;55.60;;;;;;4927463;28;20066;-71
2022/07/16 01:36:57;;;;;;;2.38;1.05;;;13.60;55.80;;;;;;4945874;28;20546;-72
2022/07/16 01:39:23;;;;;;;2.83;1.17;;;13.60;55.80;;;;;;4927139;28;20474;-72
2022/07/16 01:41:50;;;;;;;2.13;1.20;;;13.50;55.80;;;;;;4926474;28;20031;-73
2022/07/16 01:44:16;;;;;;;2.08;0.90;;;13.50;56.00;;;;;;4944332;28;20574;-72
2022/07/16 01:46:42;;;;;;;1.63;1.00;;;13.50;56.10;;;;;;4923348;28;20039;-71
2022/07/16 01:49:07;;;;;;;4.40;1.20;;;13.40;56.10;;;;;;4929002;28;20165;-72
2022/07/16 01:51:33;;;;;;;3.50;1.27;;;13.40;56.20;;;;;;4954550;28;20058;-71
2022/07/16 01:53:58;;;;;;;2.53;1.15;;;13.40;56.50;;;;;;4942844;28;20115;-72
2022/07/16 01:56:24;;;;;;;1.30;0.90;;;13.40;56.50;;;;;;4949838;28;20042;-70
2022/07/16 01:58:49;;;;;;;3.42;1.45;;;13.30;56.60;;;;;;4963242;28;20034;-71
2022/07/16 02:01:15;;;;;;;2.80;1.10;;;13.30;56.70;;;;;;4941591;28;20531;-72
2022/07/16 02:03:40;;;;;;;2.80;1.05;;;13.30;56.80;;;;;;4932887;28;20507;-72
2022/07/16 02:06:06;;;;;;;1.05;0.95;;;13.20;56.80;;;;;;4905802;28;20121;-71
2022/07/16 02:08:31;;;;;;;1.58;0.85;;;13.20;56.90;;;;;;4960814;28;20119;-72
2022/07/16 02:10:57;;;;;;;1.67;1.00;;;13.20;57.00;;;;;;4946966;28;20050;-71
2022/07/16 02:13:22;;;;;;;4.68;1.45;;;13.10;57.00;;;;;;4923928;28;20122;-72
2022/07/16 02:15:48;;;;;;;4.45;1.27;;;13.10;57.10;;;;;;4968049;28;20057;-70
2022/07/16 02:18:13;;;;;;;3.75;1.33;;;13.10;57.10;;;;;;4934847;28;20133;-72
2022/07/16 02:20:39;;;;;;;2.50;1.60;;;13.00;57.10;;;;;;4939533;28;20406;-71
2022/07/16 02:23:05;;;;;;;2.30;1.20;;;13.00;57.20;;;;;;4943583;28;20685;-71
2022/07/16 02:25:30;;;;;;;3.50;1.20;;;13.00;57.40;;;;;;4946719;28;20034;-71
2022/07/16 02:28:08;;;;;;;2.45;1.48;;;12.90;57.50;;;;;;4951661;28;20104;-71
2022/07/16 02:30:37;;;;;;;1.83;1.00;;;12.90;57.50;;;;;;4975943;28;20101;-72
2022/07/16 02:33:03;;;;;;;1.90;0.93;;;12.90;57.70;;;;;;4975186;28;20047;-70
2022/07/16 02:35:29;;;;;;;1.40;1.05;;;12.90;57.60;;;;;;4972974;28;20114;-71
2022/07/16 02:37:54;;;;;;;3.22;1.20;;;12.80;57.60;;;;;;4973115;28;20728;-70
2022/07/16 02:40:20;;;;;;;2.70;1.17;;;12.80;57.80;;;;;;4942530;28;20523;-71
2022/07/16 02:42:45;;;;;;;2.28;1.10;;;12.80;57.90;;;;;;4940133;28;20065;-70
2022/07/16 02:45:11;;;;;;;1.10;1.00;;;12.70;57.90;;;;;;4963875;28;20038;-70
2022/07/16 02:47:37;;;;;;;5.20;1.35;;;12.70;58.10;;;;;;4923121;28;20035;-71
2022/07/16 02:50:03;;;;;;;2.38;1.30;;;12.60;58.00;;;;;;4963544;28;20046;-72
2022/07/16 02:52:29;;;;;;;3.53;1.20;;;12.60;58.10;;;;;;4935970;28;20042;-71
2022/07/16 02:54:54;;;;;;;1.92;1.15;;;12.60;58.20;;;;;;4937845;28;20070;-71
2022/07/16 02:57:20;;;;;;;2.92;1.50;;;12.60;58.30;;;;;;4955511;28;20067;-71
2022/07/16 02:59:45;;;;;;;2.15;1.20;;;12.50;58.40;;;;;;4943909;28;20027;-71
2022/07/16 03:02:11;;;;;;;1.55;1.20;;;12.50;58.40;;;;;;4940454;28;20059;-71
2022/07/16 03:04:36;;;;;;;1.67;1.00;;;12.50;58.60;;;;;;4917131;28;20444;-71
2022/07/16 03:07:03;;;;;;;2.30;1.25;;;12.50;58.70;;;;;;4943022;28;20049;-71
2022/07/16 03:09:28;;;;;;;1.50;1.10;;;12.40;58.70;;;;;;4947522;28;20047;-71
2022/07/16 03:11:54;;;;;;;3.60;1.30;;;12.40;58.80;;;;;;4931980;28;20035;-72
2022/07/16 03:14:19;;;;;;;1.70;1.13;;;12.30;58.80;;;;;;4938595;28;20127;-70
2022/07/16 03:16:45;;;;;;;2.30;1.23;;;12.30;58.90;;;;;;4957702;28;20082;-71
2022/07/16 03:19:10;;;;;;;1.77;1.30;;;12.30;59.10;;;;;;4954468;28;20110;-71
2022/07/16 03:21:36;;;;;;;3.30;1.50;;;12.30;59.20;;;;;;4965898;28;20109;-71
2022/07/16 03:24:01;;;;;;;2.45;1.35;;;12.20;59.20;;;;;;4947756;28;20031;-69
2022/07/16 03:26:27;;;;;;;1.80;1.20;;;12.20;59.30;;;;;;4966199;28;20037;-71
2022/07/16 03:28:52;;;;;;;6.68;1.70;;;12.20;59.40;;;;;;4931035;28;20042;-70
2022/07/16 03:31:18;;;;;;;5.03;1.40;;;12.20;59.50;;;;;;4938427;28;20130;-72
2022/07/16 03:33:44;;;;;;;5.25;1.42;;;12.10;59.50;;;;;;4921709;28;20042;-71
2022/07/16 03:36:10;;;;;;;2.75;1.40;;;12.10;59.60;;;;;;4953791;28;20470;-70
2022/07/16 03:41:20;;;;;;;2.58;1.30;;;12.00;59.70;;;;;;4934971;28;20049;-71
2022/07/16 03:43:45;;;;;;;2.22;1.15;;;12.00;59.70;;;;;;4942655;28;20035;-72
2022/07/16 03:46:13;;;;;;;3.05;1.58;;;12.00;59.90;;;;;;4966730;28;20049;-70
2022/07/16 03:48:39;;;;;;;4.15;1.42;;;12.00;60.00;;;;;;4955462;28;20074;-72
2022/07/16 03:51:06;;;;;;;2.05;1.45;;;11.90;60.00;;;;;;4955589;28;20044;-71
2022/07/16 03:53:34;;;;;;;2.30;1.73;;;11.90;60.00;;;;;;4952592;28;20135;-72
2022/07/16 03:56:00;;;;;;;2.58;1.30;;;11.90;60.20;;;;;;4938561;28;20040;-71
2022/07/16 03:58:26;;;;;;;4.60;1.35;;;11.90;60.40;;;;;;4944628;28;20031;-72
2022/07/16 04:00:52;;;;;;;2.20;1.10;;;11.80;60.40;;;;;;4945196;28;20058;-71
2022/07/16 04:03:18;;;;;;;1.42;1.33;;;11.80;60.40;;;;;;4943601;28;20059;-72
2022/07/16 04:05:43;;;;;;;3.30;1.50;;;11.80;60.60;;;;;;4921941;28;20085;-73
2022/07/16 04:08:09;;;;;;;3.28;1.60;;;11.80;60.70;;;;;;4939525;28;20054;-71
2022/07/16 04:10:34;;;;;;;1.67;1.38;;;11.80;60.90;;;;;;4945836;28;20092;-72
2022/07/16 04:13:00;;;;;;;3.40;1.45;;;11.80;60.90;;;;;;4930889;28;20027;-72
2022/07/16 04:15:25;;;;;;;3.65;1.55;;;11.70;60.90;;;;;;4964119;28;20683;-72
2022/07/16 04:17:51;;;;;;;4.72;1.38;;;11.70;61.00;;;;;;4965037;28;20070;-72
2022/07/16 04:20:16;;;;;;;2.85;1.27;;;11.70;61.20;;;;;;4954607;28;20027;-72
2022/07/16 04:22:42;;;;;;;3.05;1.20;;;11.70;61.30;;;;;;4938396;28;20038;-71
2022/07/16 04:25:08;;;;;;;1.70;1.30;;;11.70;61.30;;;;;;4951985;28;20059;-70
2022/07/16 04:27:33;;;;;;;2.05;1.30;;;11.70;61.50;;;;;;4949543;28;20730;-72
2022/07/16 04:29:59;;;;;;;2.42;1.40;;;11.70;61.80;;;;;;4955831;28;20122;-72
2022/07/16 04:32:24;;;;;;;4.05;1.40;;;11.70;61.80;;;;;;4943378;28;20125;-72
2022/07/16 04:34:50;;;;;;;4.43;1.40;;;11.70;62.00;;;;;;4944935;28;20039;-72
2022/07/16 04:37:15;;;;;;;3.45;1.38;;;11.70;62.00;;;;;;4950557;28;20088;-72
2022/07/16 04:39:41;;;;;;;3.90;1.50;;;11.70;62.10;;;;;;4948794;28;20551;-71
2022/07/16 04:42:06;;;;;;;1.38;1.27;;;11.70;62.20;;;;;;4909152;28;20899;-72
2022/07/16 04:44:32;;;;;;;2.83;1.10;;;11.70;62.30;;;;;;4949087;28;20424;-72
2022/07/16 04:46:57;;;;;;;3.58;1.55;;;11.70;62.50;;;;;;4971493;28;20051;-71
2022/07/16 04:49:23;;;;;;;2.50;1.40;;;11.70;62.50;;;;;;4940206;28;20115;-71
2022/07/16 04:51:48;;;;;;;2.40;1.90;;;11.70;62.60;;;;;;4934193;28;20034;-71
2022/07/16 04:54:14;;;;;;;3.40;2.00;;;11.70;62.70;;;;;;4939020;28;20441;-71
2022/07/16 04:56:39;;;;;;;2.55;1.60;;;11.80;62.70;;;;;;4923113;28;20063;-71
2022/07/16 04:59:05;;;;;;;2.50;1.63;;;11.70;62.70;;;;;;4951282;28;20121;-72
2022/07/16 05:01:31;;;;;;;2.90;1.60;;;11.80;62.90;;;;;;4957514;28;20086;-72
2022/07/16 05:03:56;;;;;;;3.47;1.73;;;11.80;63.00;;;;;;4947165;28;20134;-70
2022/07/16 05:06:22;;;;;;;2.45;1.40;;;11.80;63.10;;;;;;4930973;28;20039;-69
2022/07/16 05:08:47;;;;;;;4.63;1.80;;;11.80;63.20;;;;;;4953593;28;20039;-70
2022/07/16 05:11:13;;;;;;;2.63;1.30;;;11.90;63.40;;;;;;4957558;28;20035;-69
2022/07/16 05:13:38;;;;;;;2.95;1.80;;;11.90;63.50;;;;;;4923562;28;20063;-70
2022/07/16 05:16:04;;;;;;;2.78;1.98;;;11.90;63.60;;;;;;4952361;28;20053;-71
2022/07/16 05:18:29;;;;;;;5.20;2.13;;;12.00;63.70;;;;;;4923245;28;20043;-70
2022/07/16 05:20:55;;;;;;;2.95;1.90;;;12.00;63.80;;;;;;4945865;28;20054;-69
2022/07/16 05:23:20;;;;;;;4.07;2.10;;;12.10;64.00;;;;;;4944144;28;20809;-69
2022/07/16 05:25:46;;;;;;;6.53;2.20;;;12.20;64.00;;;;;;4922263;28;20126;-70
2022/07/16 05:28:12;;;;;;;3.20;2.08;;;12.20;64.10;;;;;;4938403;28;20042;-69
2022/07/16 05:30:37;;;;;;;4.03;1.90;;;12.20;64.00;;;;;;4943694;28;20058;-71
2022/07/16 05:33:03;;;;;;;4.93;2.05;;;12.30;64.20;;;;;;4950365;28;20782;-69
2022/07/16 05:35:28;;;;;;;2.72;1.50;;;12.30;64.30;;;;;;4961087;28;20062;-70
2022/07/16 05:37:54;;;;;;;1.88;1.50;;;12.40;64.30;;;;;;4937670;28;20039;-69
2022/07/16 05:40:19;;;;;;;3.35;1.60;;;12.40;64.40;;;;;;4958251;28;20047;-68
2022/07/16 05:42:45;;;;;;;4.35;1.73;;;12.50;64.30;;;;;;4943950;28;20118;-69
2022/07/16 05:45:10;;;;;;;2.88;1.88;;;12.60;64.40;;;;;;4941405;28;20027;-70
2022/07/16 05:47:36;;;;;;;6.35;2.10;;;12.60;64.30;;;;;;4921569;28;20035;-70
2022/07/16 05:50:03;;;;;;;3.90;1.88;;;12.70;64.50;;;;;;4975187;28;20039;-69
2022/07/16 05:52:28;;;;;;;4.47;2.10;;;12.80;64.40;;;;;;4959920;28;20031;-71
2022/07/16 05:54:54;;;;;;;2.15;1.67;;;12.80;65.20;;;;;;4950325;28;20086;-70
2022/07/16 05:57:19;;;;;;;4.97;2.15;;;12.90;64.30;;;;;;4930521;28;20086;-72
2022/07/16 05:59:45;;;;;;;4.97;2.17;;;13.00;64.30;;;;;;4929407;28;20102;-70
2022/07/16 06:02:10;;;;;;;3.80;1.95;;;13.10;64.40;;;;;;4930467;28;20511;-69
2022/07/16 06:04:36;;;;;;;2.63;1.73;;;13.10;64.20;;;;;;4951886;28;20040;-68
2022/07/16 06:07:01;;;;;;;4.72;1.77;;;13.20;64.20;;;;;;4949285;28;20045;-69
2022/07/16 06:09:27;;;;;;;3.30;1.70;;;13.30;64.20;;;;;;4913061;28;20698;-71
2022/07/16 06:11:52;;;;;;;4.13;1.70;;;13.40;64.20;;;;;;4940419;28;20094;-72
2022/07/16 06:14:18;;;;;;;2.47;1.70;;;13.50;64.10;;;;;;4955023;28;20041;-72
2022/07/16 06:16:44;;;;;;;4.05;2.00;;;13.60;64.00;;;;;;4935360;28;20047;-72
2022/07/16 06:19:14;;;;;;;3.90;1.73;;;13.70;63.70;;;;;;4941419;28;20462;-72
2022/07/16 06:21:39;;;;;;;4.38;1.90;;;13.80;64.60;;;;;;4960463;28;20128;-70
2022/07/16 06:24:08;;;;;;;4.20;1.90;;;13.90;63.60;;;;;;4933245;28;20035;-68
2022/07/16 06:26:33;;;;;;;4.10;1.65;;;14.10;63.60;;;;;;4930498;28;20416;-70
2022/07/16 06:28:59;;;;;;;4.28;1.58;;;14.30;63.50;;;;;;4968509;28;20050;-70
2022/07/16 06:31:24;;;;;;;3.40;1.70;;;14.40;63.20;;;;;;4962684;28;20662;-70
2022/07/16 06:33:50;;;;;;;3.95;1.40;;;14.50;63.20;;;;;;4945050;28;20039;-71
2022/07/16 06:36:16;;;;;;;3.30;1.55;;;14.70;63.00;;;;;;4948655;28;20573;-70
2022/07/16 06:38:42;;;;;;;3.35;1.52;;;14.80;62.80;;;;;;4947175;28;20079;-68
2022/07/16 06:41:07;;;;;;;3.15;1.90;;;15.00;62.70;;;;;;4962822;28;20053;-71
2022/07/16 06:43:33;;;;;;;3.55;1.67;;;15.10;62.60;;;;;;4960879;28;20064;-70
2022/07/16 06:45:59;;;;;;;1.85;1.48;;;15.30;62.40;;;;;;4929592;28;20047;-70
2022/07/16 06:48:25;;;;;;;5.00;2.00;;;15.50;62.20;;;;;;4963493;28;20034;-73
2022/07/16 06:50:50;;;;;;;5.40;2.25;;;15.70;62.00;;;;;;4921212;28;20035;-73
2022/07/16 06:53:16;;;;;;;3.88;1.83;;;15.80;61.70;;;;;;4946608;28;20464;-73
2022/07/16 06:55:41;;;;;;;3.53;1.55;;;16.00;61.40;;;;;;4956187;28;20793;-73
2022/07/16 06:58:07;;;;;;;5.22;1.55;;;16.20;61.20;;;;;;4963702;28;20522;-70
2022/07/16 07:00:32;;;;;;;3.92;1.42;;;16.40;60.90;;;;;;4970742;28;20437;-71
2022/07/16 07:02:58;;;;;;;4.72;1.60;;;16.60;60.50;;;;;;4964962;28;20620;-71
2022/07/16 07:05:23;;;;;;;4.97;1.60;;;16.80;60.20;;;;;;4988993;28;20699;-71
2022/07/16 07:07:49;;;;;;;2.80;1.90;;;17.00;59.90;;;;;;4970596;28;20041;-69
2022/07/16 07:10:14;;;;;;;3.53;1.50;;;17.20;59.60;;;;;;4960117;28;20027;-71
2022/07/16 07:12:40;;;;;;;4.35;1.38;;;17.50;59.40;;;;;;4975446;28;20065;-73
2022/07/16 07:15:06;;;;;;;2.78;1.13;;;17.70;59.10;;;;;;4959979;28;20423;-70
2022/07/16 07:17:31;;;;;;;4.20;1.35;;;17.90;58.80;;;;;;4928070;28;20373;-72
2022/07/16 07:19:57;;;;;;;3.83;1.35;;;18.10;58.40;;;;;;4937843;28;20047;-72
2022/07/16 07:22:22;;;;;;;3.20;1.27;;;18.30;58.10;;;;;;4933353;28;20133;-71
2022/07/16 07:24:48;;;;;;;2.17;1.25;;;18.50;57.70;;;;;;4935843;28;20050;-72
2022/07/16 07:27:15;;;;;;;3.15;1.20;;;18.70;57.40;;;;;;4954128;28;20039;-72
2022/07/16 07:29:41;;;;;;;5.20;1.23;;;18.90;57.00;;;;;;4946011;28;20036;-72
2022/07/16 07:32:06;;;;;;;1.63;1.15;;;19.10;56.60;;;;;;4949045;28;20391;-72
2022/07/16 07:34:32;;;;;;;4.75;1.20;;;19.20;56.40;;;;;;4944066;28;20038;-72
2022/07/16 07:36:57;;;;;;;4.15;1.00;;;19.40;56.10;;;;;;4951518;28;20042;-72
2022/07/16 07:39:23;;;;;;;4.57;0.90;;;19.50;55.80;;;;;;4931765;28;20070;-71
2022/07/16 07:41:48;;;;;;;3.70;1.60;;;19.70;55.60;;;;;;4946693;28;20130;-72
2022/07/16 07:44:14;;;;;;;2.35;1.00;;;19.80;55.20;;;;;;4917946;28;20132;-73
2022/07/16 07:46:42;;;;;;;5.43;0.90;;;20.00;54.80;;;;;;4980013;28;20408;-71
2022/07/16 07:49:08;;;;;;;1.75;0.65;;;20.20;54.20;;;;;;4955062;28;20042;-72
2022/07/16 07:51:34;;;;;;;1.27;0.90;;;20.30;54.50;;;;;;4963313;28;20042;-72
2022/07/16 07:53:59;;;;;;;2.75;0.80;;;20.40;53.30;;;;;;4967081;23;20112;-73
2022/07/16 07:56:27;;;;;;;3.35;0.93;;;20.60;52.90;;;;;;4963082;28;20109;-72
2022/07/16 07:58:53;;;;;;;5.18;1.00;;;20.80;52.50;;;;;;4959309;28;20561;-71
2022/07/16 08:01:18;;;;;;;3.33;0.80;;;20.90;52.10;;;;;;4968852;28;20059;-72
2022/07/16 08:03:44;;;;;;;1.85;0.60;;;21.00;51.60;;;;;;4963543;28;20101;-72
2022/07/16 08:06:09;;;;;;;6.30;1.40;;;21.20;51.20;;;;;;4959694;28;20152;-72
2022/07/16 08:08:35;;;;;;;2.15;0.90;;;21.40;50.90;;;;;;4941092;28;20047;-72
2022/07/16 08:11:00;;;;;;;3.28;0.80;;;21.50;50.40;;;;;;4931998;28;20038;-72
2022/07/16 08:13:26;;;;;;;2.33;1.00;;;21.70;50.00;;;;;;4944242;28;20027;-72
2022/07/16 08:15:51;;;;;;;4.35;0.90;;;21.90;49.70;;;;;;4940797;28;20031;-72
2022/07/16 08:18:17;;;;;;;2.88;0.90;;;22.20;49.30;;;;;;4949552;28;20034;-73
2022/07/16 08:20:42;;;;;;;1.95;0.90;;;22.40;49.00;;;;;;4912883;28;20105;-72
2022/07/16 08:23:08;;;;;;;2.22;0.80;;;22.50;48.50;;;;;;4964447;28;20209;-73
2022/07/16 08:25:47;;;;;;;5.65;1.02;;;22.70;48.20;;;;;;4939368;28;20046;-72
2022/07/16 08:28:13;;;;;;;2.45;1.00;;;22.90;47.90;;;;;;4940966;28;20082;-72
2022/07/16 08:30:39;;;;;;;3.20;0.90;;;23.20;47.50;;;;;;4939839;28;20118;-71
2022/07/16 08:33:04;;;;;;;2.55;1.00;;;23.40;47.20;;;;;;4943737;28;20118;-72
2022/07/16 08:35:30;;;;;;;2.35;1.05;;;23.60;46.90;;;;;;4946089;28;20090;-71
2022/07/16 08:37:55;;;;;;;2.92;0.98;;;23.80;46.70;;;;;;4949952;28;20110;-71
2022/07/16 08:40:24;;;;;;;2.88;0.80;;;24.00;46.30;;;;;;4955722;28;20039;-72
2022/07/16 08:42:52;;;;;;;5.63;1.38;;;24.20;45.70;;;;;;4938404;28;20035;-71
2022/07/16 08:45:19;;;;;;;2.80;0.88;;;24.40;45.50;;;;;;4913848;28;20087;-71
2022/07/16 08:47:48;;;;;;;4.78;1.00;;;24.60;45.20;;;;;;4912547;28;20086;-71
2022/07/16 08:50:14;;;;;;;2.42;0.93;;;24.70;44.90;;;;;;4941018;28;20652;-71
2022/07/16 08:52:47;;;;;;;2.40;1.40;;;24.90;44.70;;;;;;4957899;28;20779;-71
2022/07/16 08:55:13;;;;;;;2.38;0.98;;;25.10;44.20;;;;;;4909208;28;20042;-71
2022/07/16 08:57:39;;;;;;;1.27;1.00;;;25.30;44.00;;;;;;4975697;28;20038;-70
2022/07/16 09:00:07;;;;;;;2.53;1.20;;;25.40;43.70;;;;;;4975093;28;20129;-72
2022/07/16 09:02:33;;;;;;;4.28;1.00;;;25.60;43.40;;;;;;4966926;28;20034;-72
2022/07/16 09:04:59;;;;;;;2.58;0.93;;;25.80;43.20;;;;;;4945113;28;20053;-71
2022/07/16 09:07:25;;;;;;;2.80;1.38;;;26.00;42.90;;;;;;4976093;28;20069;-72
2022/07/16 09:09:50;;;;;;;4.00;0.90;;;26.10;42.60;;;;;;4941019;28;20051;-71
2022/07/16 09:12:42;;;;;;;2.83;1.00;;;26.40;42.30;;;;;;4949637;28;20034;-71
2022/07/16 09:15:26;;;;;;;;;;;26.50;41.10;;;;;;4941065;28;20039;-71
2022/07/16 09:18:07;;;;;;;2.92;1.23;;;26.70;41.80;;;;;;4950130;28;19914;-73
2022/07/16 09:20:32;;;;;;;7.53;1.75;;;26.90;41.10;;;;;;4945917;28;20092;-72
2022/07/16 09:22:58;;;;;;;3.60;0.90;;;27.00;41.30;;;;;;4958173;28;20046;-71
2022/07/16 09:25:23;;;;;;;2.53;0.90;;;27.10;40.90;;;;;;4935024;28;20063;-72
2022/07/16 09:27:59;;;;;;;3.22;0.88;;;27.20;40.50;;;;;;4935136;28;20061;-71
2022/07/16 09:30:25;;;;;;;4.57;1.25;;;27.40;39.80;;;;;;4947160;28;20682;-72
2022/07/16 09:32:51;;;;;;;2.47;1.00;;;27.60;40.00;;;;;;4956739;28;20042;-70
2022/07/16 09:35:17;;;;;;;3.53;1.13;;;27.70;39.60;;;;;;4944243;28;20027;-71
2022/07/16 09:37:46;;;;;;;1.02;0.70;;;27.90;39.30;;;;;;4932145;28;20063;-70
2022/07/16 09:40:12;;;;;;;2.10;0.90;;;28.10;39.00;;;;;;4964222;28;20027;-72
2022/07/16 09:42:40;;;;;;;2.90;0.77;;;28.30;38.80;;;;;;4968827;28;20078;-72
2022/07/16 09:45:07;;;;;;;2.28;1.27;;;28.50;38.50;;;;;;4952984;28;20049;-71
2022/07/16 09:47:32;;;;;;;2.20;1.00;;;28.60;38.20;;;;;;4933701;28;20097;-72
2022/07/16 09:49:58;;;;;;;1.90;1.40;;;28.70;37.90;;;;;;4976108;28;20130;-71
2022/07/16 09:52:31;;;;;;;4.40;0.70;;;28.70;37.60;;;;;;4950017;28;20579;-72
2022/07/16 09:54:56;;;;;;;1.48;1.05;;;28.90;37.30;;;;;;4940810;28;20581;-71
2022/07/16 09:57:23;;;;;;;2.35;0.90;;;29.00;37.40;;;;;;4949309;28;20038;-70
2022/07/16 09:59:49;;;;;;;1.00;0.80;;;29.10;37.20;;;;;;4936694;28;20046;-72
2022/07/16 10:02:14;;;;;;;1.23;0.90;;;29.30;36.80;;;;;;4963247;28;20039;-73
2022/07/16 10:04:40;;;;;;;2.55;0.90;;;29.40;36.60;;;;;;4940103;28;20042;-70
2022/07/16 10:07:08;;;;;;;1.80;0.75;;;29.50;36.30;;;;;;4956414;28;20062;-73
2022/07/16 10:09:34;;;;;;;2.97;1.20;;;29.70;36.10;;;;;;4925232;28;20078;-71
2022/07/16 10:12:05;;;;;;;4.30;1.02;;;29.80;35.80;;;;;;4945956;28;20043;-71
2022/07/16 10:14:35;;;;;;;1.88;1.08;;;30.00;35.50;;;;;;4903040;28;20043;-71
2022/07/16 10:17:13;;;;;;;3.05;1.10;;;30.10;35.30;;;;;;4924668;28;20043;-71
2022/07/16 10:19:39;;;;;;;1.73;0.70;;;30.30;35.10;;;;;;4946256;28;20039;-72
2022/07/16 10:22:15;;;;;;;1.85;0.90;;;30.50;34.90;;;;;;4943905;28;20053;-71
2022/07/16 10:24:44;;;;;;;1.95;1.15;;;30.60;33.90;;;;;;4946955;28;20054;-72
2022/07/16 10:27:27;;;;;;;2.17;1.05;;;30.80;34.10;;;;;;4935055;28;21789;-72
2022/07/16 10:30:31;;;;;;;3.00;0.98;;;30.90;33.40;;;;;;4949813;28;20039;-72
2022/07/16 10:33:00;;;;;;;2.97;0.80;;;31.00;33.00;;;;;;4898200;28;20042;-71
2022/07/16 10:35:34;;;;;;;1.15;0.65;;;31.00;33.30;;;;;;4923292;28;20051;-72
2022/07/16 10:38:16;;;;;;;1.63;0.77;;;31.20;33.10;;;;;;4909379;28;20039;-72
2022/07/16 10:40:43;;;;;;;1.73;0.80;;;31.30;32.90;;;;;;4909692;28;20424;-72
2022/07/16 10:43:10;;;;;;;2.65;1.25;;;31.30;32.90;;;;;;4934402;28;20137;-74
2022/07/16 10:45:51;;;;;;;5.43;0.90;;;31.40;32.70;;;;;;4937940;28;20035;-73
2022/07/16 10:48:18;;;;;;;2.10;1.00;;;31.50;31.80;;;;;;4900047;28;20074;-71
2022/07/16 10:51:11;;;;;;;3.33;0.90;;;31.50;32.30;;;;;;4913269;28;20808;-72
2022/07/16 10:54:02;;;;;;;1.73;0.80;;;31.50;31.40;;;;;;4913477;28;20112;-73
2022/07/16 10:56:47;;;;;;;1.58;1.00;;;31.60;31.50;;;;;;4929148;28;20153;-72
2022/07/16 10:59:19;;;;;;;2.38;1.13;;;31.50;31.40;;;;;;4867214;29;20140;-72
2022/07/16 11:01:49;;;;;;;2.40;0.80;;;31.50;31.80;;;;;;4883907;29;20059;-71
2022/07/16 11:04:14;;;;;;;1.20;0.80;;;31.50;31.60;;;;;;4940342;28;20058;-71
2022/07/16 11:06:41;;;;;;;1.08;0.90;;;31.50;31.80;;;;;;4939736;28;20035;-72
2022/07/16 11:09:07;;;;;;;4.05;1.13;;;31.60;31.80;;;;;;4926792;28;20035;-72
2022/07/16 11:11:33;;;;;;;1.65;1.08;;;31.70;31.80;;;;;;4975487;28;20707;-71
2022/07/16 11:13:59;;;;;;;1.58;1.00;;;31.80;31.60;;;;;;4969751;28;20045;-72
2022/07/16 11:16:25;;;;;;;1.90;1.05;;;31.80;31.50;;;;;;4934369;28;20522;-71
2022/07/16 11:18:51;;;;;;;2.80;1.27;;;31.90;31.40;;;;;;4916708;28;20040;-71
2022/07/16 11:21:16;;;;;;;2.42;1.20;;;32.00;31.30;;;;;;4971667;28;20126;-73
2022/07/16 11:24:05;;;;;;;1.45;0.95;;;32.10;31.30;;;;;;4932361;28;20051;-71
2022/07/16 11:26:30;;;;;;;2.88;1.10;;;32.20;30.70;;;;;;4946776;28;20399;-72
2022/07/16 11:29:00;;;;;;;1.60;1.10;;;32.30;31.10;;;;;;4946042;28;20043;-71
2022/07/16 11:31:26;;;;;;;2.70;1.33;;;32.40;31.00;;;;;;4945452;28;20042;-71
2022/07/16 11:33:52;;;;;;;2.22;1.02;;;32.40;30.90;;;;;;4956208;28;20287;-71
2022/07/16 11:36:19;;;;;;;4.40;1.35;;;32.30;30.70;;;;;;4968919;28;20031;-72
2022/07/16 11:38:45;;;;;;;0.80;0.80;;;32.30;30.60;;;;;;4924598;28;20150;-71
2022/07/16 11:41:11;;;;;;;1.73;1.10;;;32.30;30.50;;;;;;4948576;28;20751;-72
2022/07/16 11:43:36;;;;;;;3.10;1.10;;;32.30;30.50;;;;;;4936829;28;20561;-70
2022/07/16 11:46:02;;;;;;;1.88;1.02;;;32.40;30.50;;;;;;4971823;28;20489;-73
2022/07/16 11:48:36;;;;;;;1.92;1.30;;;32.50;30.40;;;;;;4967330;28;20038;-71
2022/07/16 11:51:06;;;;;;;2.53;1.17;;;32.60;30.20;;;;;;4979692;28;20034;-71
2022/07/16 11:53:33;;;;;;;4.10;1.20;;;32.70;30.00;;;;;;4972249;28;20031;-72
2022/07/16 11:55:59;;;;;;;1.58;0.80;;;32.50;30.00;;;;;;4985327;28;20089;-71
2022/07/16 11:58:28;;;;;;;2.95;1.40;;;32.40;30.00;;;;;;4952588;28;20027;-71
2022/07/16 12:00:54;;;;;;;2.70;1.05;;;32.40;30.00;;;;;;4962556;28;20046;-73
2022/07/16 12:03:19;;;;;;;4.72;1.20;;;32.40;29.90;;;;;;4961651;28;20046;-72
2022/07/16 12:05:45;;;;;;;4.80;1.65;;;32.50;29.90;;;;;;4970104;28;20057;-72
2022/07/16 12:08:13;;;;;;;4.70;1.00;;;32.50;29.90;;;;;;4960915;28;20035;-72
2022/07/16 12:10:39;;;;;;;2.47;1.30;;;32.70;29.90;;;;;;4981174;28;20043;-71
2022/07/16 12:13:06;;;;;;;1.70;1.13;;;32.70;29.80;;;;;;4976245;28;20037;-72
2022/07/16 12:15:51;;;;;;;2.67;1.30;;;32.70;29.80;;;;;;4976831;28;20129;-71
2022/07/16 12:18:17;;;;;;;1.80;1.00;;;32.50;29.20;;;;;;4968379;28;20120;-71
2022/07/16 12:20:50;;;;;;;3.30;1.30;;;32.50;29.80;;;;;;4943321;28;20330;-73
2022/07/16 12:23:37;;;;;;;3.17;1.20;;;32.50;29.80;;;;;;4960559;28;20085;-72
2022/07/16 12:26:04;;;;;;;1.40;0.85;;;32.60;29.50;;;;;;4958212;28;20170;-72
2022/07/16 12:28:30;;;;;;;3.17;1.00;;;32.70;29.80;;;;;;4962452;28;20061;-71
2022/07/16 12:30:57;;;;;;;3.05;1.00;;;32.90;29.80;;;;;;4951206;28;20035;-71
2022/07/16 12:33:23;;;;;;;2.67;1.20;;;33.10;29.70;;;;;;4966713;28;20070;-72
2022/07/16 12:35:57;;;;;;;4.20;1.15;;;33.30;29.70;;;;;;4967158;28;20038;-71
2022/07/16 12:38:45;;;;;;;9.98;5.03;;;33.30;29.30;;;;;;4968007;28;20057;-71
2022/07/16 12:41:21;;;;;;;4.18;1.45;;;33.30;29.00;;;;;;4984627;28;20083;-73
2022/07/16 12:43:53;;;;;;;3.22;1.35;;;33.20;29.20;;;;;;4956308;28;20034;-72
2022/07/16 12:46:26;;;;;;;2.75;1.10;;;33.30;29.20;;;;;;4965678;28;20121;-71
2022/07/16 12:48:57;;;;;;;2.90;1.17;;;33.30;29.00;;;;;;4954764;28;20606;-71
2022/07/16 12:51:27;;;;;;;2.63;1.23;;;33.20;28.90;;;;;;4963741;28;20041;-72
2022/07/16 12:53:53;;;;;;;2.03;1.13;;;33.30;29.10;;;;;;4981452;28;20047;-72